Allouez, MI

7:12 AM EDT on October 23, 2014 (GMT -0400)
Hubbell (Near Hubbell Haven) | Change Station
CLOSE
Current Station
Personal Weather Station
Location: Hubbell, MI
Elevation: 730 ft
Nearby Weather Stations

Elev 730 ft 47.18 °N, 88.43 °W | Updated 1 second ago

Overcast
Overcast
42.4 °F
Feels Like 42 °F
N
0.0
Wind Variable Wind from North
Gusts 0.0 mph

Today
High -- | Low -- °F
--% Chance of Precip.
Yesterday
High -- | Low -- °F
Precip. -- in
8:23 AM 6:51 PM
Waning Crescent, 0% visible
Pressure 30.09 in
Visibility 8.0 miles
Clouds Scattered Clouds 3200 ft
Overcast 4300 ft
Windchill 42 °F
Dew Point 40 °F
Humidity 91%
Rainfall 0.10 in
Snow Depth Not available.
UV 0 out of 12
Pollen 1.40 out of 12
Air Quality Not available.
Flu Activity Sporadic
METAR KCMX 231053Z AUTO 16005KT 8SM SCT032 OVC043 06/04 A3006 RMK AO2 RAE18 SLP188 P0000 T00560039

More Conditions Fewer Conditions

Pressure 30.09 in
Visibility 8.0 miles
Clouds Scattered Clouds 3200 ft
Overcast 4300 ft
Windchill 42 °F
Dew Point 40 °F
Humidity 91%
Rainfall 0.10 in
Snow Depth Not available.
UV 0 out of 12
Pollen 1.40 out of 12
Air Quality Not available.
Flu Activity Sporadic
METAR KCMX 231053Z AUTO 16005KT 8SM SCT032 OVC043 06/04 A3006 RMK AO2 RAE18 SLP188 P0000 T00560039

More Conditions Fewer Conditions

10-Day Weather Forecast

Almanac

Astronomy

Oct. 23, 2014 Rise Set
Actual Time 8:23 AM EDT 6:51 PM EDT
Civil Twilight 7:52 AM EDT 7:22 PM EDT
Nautical Twilight 7:16 AM EDT 7:58 PM EDT
Astronomical Twilight 6:41 AM EDT 8:33 PM EDT
Moon 8:01 AM EDT 6:52 PM EDT
Length of Visible Light 11h 30m
Length of Day
10h 27m
Tomorrow will be 3m 11s shorter.
Waning Crescent, 0% of the Moon is Illuminated
Today
Waning Crescent
Oct 23
New
Oct 30
First Quarter
Nov 6
Full
Nov 14
Last Quarter

Today's Extremes

State Highs State Lows

Community

WunderPhotos

Upload Photos

1,764,204 photos uploaded!

Nearby

Snow Depth

Station Depth Elevation
No new snow has been reported.

Earthquake Activity

City Distance Mag. Time & Date
No recent earthquake activity has been reported nearby.
Minimum magnitude displayed is 2.5.

Coastal Water Temperatures

Place Temperature
No Stations Reporting

Nearby Weather Stations